Terminal Aerodrome Forecast
Issued by NWS Oklahoma City, OK

Home | Current Version | Previous Version | Text Only | Print | Product List | Glossary On
Versions: 1 2 3 4 5 6 7 8 9 10 11 12 13 14 15
000
FTUS44 KOUN 221405 AAC
TAFOUN
TAF AMD
KOUN 221405Z 2214/2312 18012KT P6SM BKN015
      TEMPO 2214/2215 BKN009
     FM221700 17014G22KT P6SM SCT030
     FM230000 15011KT P6SM SKC=

USA.gov is the U.S. government's official web portal to all federal, state and local government web resources and services.